createdAt,value
2023-03-24T00:03:50.036Z,55.39
2023-03-24T00:08:51.733Z,56.49
2023-03-24T00:13:53.305Z,57.30
2023-03-24T00:18:55.023Z,56.48
2023-03-24T00:23:56.539Z,56.30
2023-03-24T00:28:58.087Z,56.73
2023-03-24T00:34:00.155Z,56.74
2023-03-24T00:39:02.263Z,55.84
2023-03-24T00:44:03.958Z,57.24
2023-03-24T00:49:07.580Z,57.46
2023-03-24T00:54:12.072Z,58.53
2023-03-24T00:59:13.516Z,58.58
2023-03-24T01:04:15.009Z,57.67
2023-03-24T01:09:16.568Z,58.86
2023-03-24T01:14:18.100Z,59.82
2023-03-24T01:19:19.620Z,59.48
2023-03-24T01:24:22.019Z,59.18
2023-03-24T01:29:24.061Z,59.72
2023-03-24T01:34:25.770Z,59.16
2023-03-24T01:39:27.393Z,59.57
2023-03-24T01:44:33.622Z,59.97
2023-03-24T01:49:39.728Z,59.68
2023-03-24T01:54:50.535Z,59.35
2023-03-24T01:59:57.573Z,59.88
2023-03-24T02:05:29.343Z,59.73
2023-03-24T02:10:33.834Z,59.27
2023-03-24T02:15:45.173Z,58.92
2023-03-24T02:21:02.855Z,58.81
2023-03-24T02:26:34.684Z,58.55
2023-03-24T02:32:06.627Z,57.55
2023-03-24T02:37:29.730Z,57.63
2023-03-24T02:42:58.823Z,58.42
2023-03-24T02:48:18.036Z,58.89
2023-03-24T02:53:25.582Z,59.89
2023-03-24T02:58:53.605Z,61.17
2023-03-24T03:03:58.715Z,61.19
2023-03-24T03:09:05.092Z,62.48
2023-03-24T03:14:13.522Z,63.52
2023-03-24T03:19:22.720Z,63.65
2023-03-24T03:24:30.298Z,63.52
2023-03-24T03:29:38.014Z,63.77
2023-03-24T03:35:16.924Z,63.48
2023-03-24T03:40:25.126Z,64.26
2023-03-24T03:45:34.063Z,65.51
2023-03-24T03:50:36.633Z,65.06
2023-03-24T03:55:41.348Z,64.26
2023-03-24T04:00:43.234Z,64.63
2023-03-24T04:06:23.195Z,65.53
2023-03-24T04:11:36.623Z,65.18
2023-03-24T04:17:24.832Z,64.52
2023-03-24T04:22:38.154Z,65.30
2023-03-24T04:28:26.829Z,65.96
2023-03-24T04:33:44.712Z,65.92
2023-03-24T04:38:50.044Z,65.74
2023-03-24T04:44:09.034Z,65.77
2023-03-24T04:49:19.856Z,65.89
2023-03-24T04:54:23.543Z,65.72
2023-03-24T04:59:31.104Z,65.82
2023-03-24T05:04:32.996Z,66.74
2023-03-24T05:09:41.692Z,65.03
2023-03-24T05:14:43.277Z,63.85
2023-03-24T05:19:44.927Z,64.54
2023-03-24T05:24:46.499Z,64.27
2023-03-24T05:29:48.041Z,64.15
2023-03-24T05:34:56.336Z,64.33
2023-03-24T05:40:04.563Z,66.12
2023-03-24T05:45:22.049Z,65.67
2023-03-24T05:50:23.652Z,64.94
2023-03-24T05:55:25.637Z,64.58
2023-03-24T06:00:34.646Z,64.58
2023-03-24T06:05:46.285Z,65.36
2023-03-24T06:10:48.857Z,66.24
2023-03-24T06:15:50.579Z,66.29
2023-03-24T06:21:09.373Z,66.33
2023-03-24T06:26:12.746Z,66.55
2023-03-24T06:31:24.395Z,65.90
2023-03-24T06:36:27.750Z,66.67
2023-03-24T06:41:29.621Z,67.28
2023-03-24T06:46:34.682Z,66.61
2023-03-24T06:51:36.458Z,66.88
2023-03-24T06:56:38.351Z,65.42
2023-03-24T07:01:41.298Z,65.95
2023-03-24T07:07:19.707Z,64.80
2023-03-24T07:12:28.471Z,65.69
2023-03-24T07:17:30.269Z,65.60
2023-03-24T07:22:49.832Z,66.09
2023-03-24T07:28:00.386Z,65.54
2023-03-24T07:33:03.761Z,65.27
2023-03-24T07:38:07.007Z,65.71
2023-03-24T07:43:08.534Z,66.02
2023-03-24T07:48:19.257Z,67.26
2023-03-24T07:53:20.827Z,66.66
2023-03-24T07:58:22.762Z,66.87
2023-03-24T08:03:38.715Z,67.37
2023-03-24T08:08:52.189Z,67.35
2023-03-24T08:13:53.701Z,67.36
2023-03-24T08:18:55.271Z,67.73
2023-03-24T08:23:56.730Z,67.64
2023-03-24T08:28:58.223Z,67.54
2023-03-24T08:33:59.716Z,67.15
2023-03-24T08:39:01.253Z,66.99
2023-03-24T08:44:06.698Z,66.59
2023-03-24T08:49:08.825Z,67.01
2023-03-24T08:54:10.322Z,67.39
2023-03-24T08:59:11.836Z,66.93
2023-03-24T09:04:13.342Z,66.70
2023-03-24T09:09:14.865Z,65.73
2023-03-24T09:14:16.355Z,65.59
2023-03-24T09:19:17.883Z,66.51
2023-03-24T09:24:19.379Z,66.91
2023-03-24T09:29:20.912Z,66.00
2023-03-24T09:34:23.536Z,64.85
2023-03-24T09:39:25.077Z,64.16
2023-03-24T09:44:46.292Z,65.78
2023-03-24T09:49:49.346Z,64.45
2023-03-24T09:54:56.412Z,64.01
2023-03-24T09:59:57.955Z,63.79
2023-03-24T10:04:59.727Z,64.17
2023-03-24T10:10:01.758Z,64.98
2023-03-24T10:15:17.686Z,65.14
2023-03-24T10:20:52.302Z,64.52
2023-03-24T10:25:53.754Z,66.04
2023-03-24T10:31:00.614Z,64.40
2023-03-24T10:36:12.840Z,65.23
2023-03-24T10:41:19.234Z,65.29
2023-03-24T10:46:24.971Z,65.71
2023-03-24T10:51:31.802Z,64.74
2023-03-24T10:56:43.302Z,65.20
2023-03-24T11:01:45.850Z,65.64
2023-03-24T11:07:05.222Z,65.81
2023-03-24T11:12:21.209Z,64.06
2023-03-24T11:17:24.310Z,62.52
2023-03-24T11:22:25.952Z,62.01
2023-03-24T11:27:27.475Z,60.88
2023-03-24T11:32:29.080Z,61.25
2023-03-24T11:37:35.676Z,60.66
2023-03-24T11:42:44.134Z,61.75
2023-03-24T11:47:48.241Z,63.08
2023-03-24T11:52:56.573Z,63.52
2023-03-24T11:58:03.651Z,64.72
2023-03-24T12:03:56.353Z,62.70
2023-03-24T12:09:33.163Z,63.10
2023-03-24T12:14:53.734Z,62.24
2023-03-24T12:20:13.266Z,62.19
2023-03-24T12:25:27.521Z,61.11
2023-03-24T12:30:34.980Z,60.98
2023-03-24T12:36:20.629Z,60.55
2023-03-24T12:41:46.501Z,60.46
2023-03-24T12:46:54.426Z,59.22
2023-03-24T12:52:01.838Z,59.89
2023-03-24T12:57:15.557Z,60.05
2023-03-24T13:02:43.117Z,60.61
2023-03-24T13:07:45.237Z,61.51
2023-03-24T13:13:05.193Z,61.02
2023-03-24T13:18:09.804Z,62.57
2023-03-24T13:23:23.606Z,62.29
2023-03-24T13:28:34.705Z,62.79
2023-03-24T13:33:38.512Z,63.43
2023-03-24T13:38:52.998Z,62.78
2023-03-24T13:44:01.381Z,62.87
2023-03-24T13:49:06.537Z,62.73
2023-03-24T13:54:20.214Z,62.70
2023-03-24T13:59:29.088Z,63.52
2023-03-24T14:04:45.093Z,63.50
2023-03-24T14:10:02.052Z,64.60
2023-03-24T14:15:14.126Z,63.98
2023-03-24T14:20:32.112Z,64.37
2023-03-24T14:25:34.191Z,65.12
2023-03-24T14:30:35.761Z,64.37
2023-03-24T14:35:43.751Z,65.06
2023-03-24T14:40:59.935Z,64.53
2023-03-24T14:46:03.691Z,64.78
2023-03-24T14:51:47.344Z,64.91
2023-03-24T14:56:52.858Z,64.64
2023-03-24T15:02:03.529Z,64.02
2023-03-24T15:07:05.169Z,63.81
2023-03-24T15:12:06.699Z,64.08
2023-03-24T15:17:23.794Z,64.09
2023-03-24T15:22:25.265Z,63.81
2023-03-24T15:27:28.904Z,63.48
2023-03-24T15:32:30.833Z,62.39
2023-03-24T15:37:41.296Z,63.02
2023-03-24T15:42:44.856Z,63.19
2023-03-24T15:47:46.428Z,63.32
2023-03-24T15:53:18.570Z,63.00
2023-03-24T15:58:25.914Z,62.98
2023-03-24T16:03:29.324Z,63.44
2023-03-24T16:08:36.125Z,62.39
2023-03-24T16:13:43.833Z,61.76
2023-03-24T16:18:47.060Z,62.40
2023-03-24T16:23:51.085Z,62.35
2023-03-24T16:28:54.239Z,62.47
2023-03-24T16:33:57.885Z,61.96
2023-03-24T16:39:00.414Z,62.75
2023-03-24T16:44:01.866Z,62.68
2023-03-24T16:49:05.928Z,63.01
2023-03-24T16:54:08.141Z,62.77
2023-03-24T16:59:09.632Z,62.42
2023-03-24T17:04:12.934Z,63.81
2023-03-24T17:09:14.687Z,63.19
2023-03-24T17:14:16.326Z,63.97
2023-03-24T17:19:20.333Z,63.14
2023-03-24T17:24:22.043Z,64.05
2023-03-24T17:29:23.576Z,64.22
2023-03-24T17:34:25.090Z,64.25
2023-03-24T17:39:26.591Z,64.55
2023-03-24T17:44:28.645Z,64.47
2023-03-24T17:49:30.209Z,64.54
2023-03-24T17:54:31.687Z,64.13
2023-03-24T17:59:33.883Z,64.17
2023-03-24T18:04:35.482Z,63.74
2023-03-24T18:09:37.139Z,61.50
2023-03-24T18:14:38.684Z,60.58
2023-03-24T18:19:40.253Z,59.92
2023-03-24T18:24:41.734Z,59.97
2023-03-24T18:29:43.207Z,62.56
2023-03-24T18:34:44.873Z,63.54
2023-03-24T18:39:46.442Z,64.40
2023-03-24T18:44:48.141Z,64.42
2023-03-24T18:49:49.697Z,62.59
2023-03-24T18:54:51.261Z,64.60
2023-03-24T18:59:52.758Z,63.76
2023-03-24T19:04:54.224Z,64.23
2023-03-24T19:09:55.742Z,62.29
2023-03-24T19:14:57.284Z,62.20
2023-03-24T19:19:58.742Z,61.40
2023-03-24T19:25:00.186Z,60.80
2023-03-24T19:30:01.671Z,60.88
2023-03-24T19:35:03.746Z,60.92
2023-03-24T19:40:06.834Z,60.51
2023-03-24T19:45:09.666Z,59.83
2023-03-24T19:50:12.379Z,59.81
2023-03-24T19:55:14.051Z,60.01
2023-03-24T20:00:15.945Z,61.00
2023-03-24T20:05:17.492Z,60.59
2023-03-24T20:10:18.943Z,59.66
2023-03-24T20:15:20.539Z,59.03
2023-03-24T20:20:21.992Z,58.27
2023-03-24T20:25:23.488Z,58.20
2023-03-24T20:30:25.043Z,58.02
2023-03-24T20:35:26.615Z,58.51
2023-03-24T20:40:28.200Z,59.58
2023-03-24T20:45:29.678Z,59.73
2023-03-24T20:50:31.193Z,59.47
2023-03-24T20:55:32.679Z,59.27
2023-03-24T21:00:35.205Z,59.24
2023-03-24T21:05:36.644Z,59.40
2023-03-24T21:10:38.132Z,60.09
2023-03-24T21:15:44.047Z,60.25
2023-03-24T21:20:55.459Z,60.31
2023-03-24T21:25:56.956Z,59.47
2023-03-24T21:30:59.804Z,58.10
2023-03-24T21:36:01.424Z,58.43
2023-03-24T21:41:03.916Z,58.61
2023-03-24T21:46:05.388Z,58.01
2023-03-24T21:51:06.842Z,57.99
2023-03-24T21:56:08.425Z,57.52
2023-03-24T22:01:09.914Z,57.20
2023-03-24T22:06:11.461Z,56.91
2023-03-24T22:11:12.973Z,57.71
2023-03-24T22:16:14.612Z,58.01
2023-03-24T22:21:16.143Z,57.64
2023-03-24T22:26:17.656Z,57.48
2023-03-24T22:31:19.115Z,56.86
2023-03-24T22:36:20.690Z,56.51
2023-03-24T22:41:22.129Z,55.75
2023-03-24T22:46:23.680Z,55.70
2023-03-24T22:51:25.251Z,56.33
2023-03-24T22:56:26.780Z,56.12
2023-03-24T23:01:28.333Z,55.65
2023-03-24T23:06:29.859Z,55.57
2023-03-24T23:11:32.244Z,55.32
2023-03-24T23:16:36.155Z,55.15
2023-03-24T23:21:38.030Z,55.20
2023-03-24T23:26:39.488Z,54.31
2023-03-24T23:31:41.158Z,55.94
2023-03-24T23:36:42.760Z,57.41
2023-03-24T23:41:44.234Z,57.50
2023-03-24T23:46:45.730Z,58.15
2023-03-24T23:51:47.312Z,57.96
2023-03-24T23:56:48.819Z,58.49
